Aérodrome :
LOGIN :

S'inscrire | Disclaimer

   EN    FR    IT 

 










Légende :    VFR   VFR Marginal   IFR   IFR Intensif   IFR Très Intensif
Visi : 
Plafond : 
>= 8 km
>= 3000ft
5 à 8 km
1000 à 3000 ft
1500m à 5 km
500 à 1000 ft
800 à 1500m
200 à 500 ft
< 800m
< 200 ft
Symboles :   Orages  Brouillard  Fortes neiges  Fortes précipitations  Vent > 20 kt
SIGMETs :   Divers  Orages  Givrage  Turbulence  Onde Orograph.  Cendres Volcan.






- Altitude de l'aérodrome : 348 ft
- Code IATA : LDV


LFRJ - Landivisiau

DERNIER METAR :
  • 240800Z AUTO 34009KT 310V020 9999 BKN020 BKN026 BKN043 11/07 Q1019 NOSIG

METARs EXPIRÉS :
  • 240730Z AUTO 35008KT 9999 FEW020 SCT045 10/07 Q1019 NOSIG
  • 240700Z AUTO 35008KT 9999 BKN019 BKN027 BKN035 10/07 Q1019 NOSIG
  • 240630Z AUTO 33003KT 9999 SCT022 BKN033 BKN041 09/07 Q1020 NOSIG
  • 240600Z AUTO 33003KT 300V360 9999 BKN020 BKN038 08/06 Q1020 NOSIG
  • 240530Z AUTO 34005KT 9999 SCT022 SCT033 08/06 Q1020 NOSIG
  • 240500Z AUTO 33006KT 9999 SCT021 SCT027 BKN039 08/06 Q1020
  • 240430Z AUTO 33005KT 9999 FEW021 BKN040 08/06 Q1020
  • 240400Z AUTO 33006KT 9999 FEW021 SCT026 BKN041 08/06 Q1020
  • 240330Z AUTO 34006KT 9999 BKN019 BKN026 BKN034 09/07 Q1021

TAF TAF LFRJ
Valide du 24 à 06h jusqu'au 24 à 15h UTC


240500Z 2406/2415 34005KT 9999 SCT021
PROB40
TEMPO 2412/2415 4000 -SHRA



MET'MAP, la Météo Aéronautique d'un coup d'oeil ! - Copyright ORBIFLY Décembre 2007 - Disclaimer

ORBIFLY MET'MAP TEAM :

Programmation & Développement : Alexandra Zaïnal
Sur une idée originale de : Baudouin d'Aumeries
Soutien technique & logistique : Manuel Goepfert
Assistance : Marc-Olivier Méhu




SOURCES & CREDITS :

   NOAA